Main page
Satellite images 15-day forecastsClimateMarine weather Cyclones Lightning AirportsFAQ Newsletter About
Weather : Europe Africa North America South America Asia Australia-Oceania Others
Languages Contact

Çorlu, Turkey

latitude: 41-08N, longitude: 027-55E, elevation: 173 m


METAR: LTBU 280820Z 02021KT CAVOK 28/18 Q1012
short-TAF: out of date (34345 hours)
long-TAF: LTBU 280440Z 2806/2906 03013KT 9999 SCT035 TEMPO 2810/2814 02018G35KT

Time: 12:05 (09:05 UTC)

Current weather observation

The report was made 45 minutes ago, at 08:20 UTC  
Wind 21 kt from the North/Northeast
Temperature 28°C
Humidity 55%
Pressure 1012 hPa
Visibility 10 km or more
no clouds below 1500 m and no cumulonimbus

Change units

Forecast

The report was made 4 hours and 2 minutes ago, at 05:03 UTC  
Forecast valid from 28 at 06 UTC to 29 at 06 UTC
Wind 13 kt from the North/Northeast
Visibility 10 km or more
Scattered clouds at a height of 3500 ft
Temporary
from 28 at 10 UTC to 28 at 14 UTC
Wind 18 kt from the North/Northeast with gusts up to 35 kt
The information on this site is subject to a disclaimer
Weather : Europe Africa North America South America Asia Australia-Oceania Others
Satellite images 15-day forecastsClimateMarine weather Cyclones Lightning AirportsFAQ Languages Contact Newsletter About